sensor_id;sensor_type;location;lat;lon;timestamp;temperature;humidity
65207;SHT31;58477;48.072;11.970;2023-04-08T00:01:21;3.65;90.96
65207;SHT31;58477;48.072;11.970;2023-04-08T00:03:47;3.42;91.26
65207;SHT31;58477;48.072;11.970;2023-04-08T00:06:12;3.27;91.34
65207;SHT31;58477;48.072;11.970;2023-04-08T00:08:38;3.16;91.82
65207;SHT31;58477;48.072;11.970;2023-04-08T00:11:03;3.11;91.85
65207;SHT31;58477;48.072;11.970;2023-04-08T00:13:28;3.06;92.01
65207;SHT31;58477;48.072;11.970;2023-04-08T00:15:54;2.99;92.21
65207;SHT31;58477;48.072;11.970;2023-04-08T00:18:20;3.03;92.82
65207;SHT31;58477;48.072;11.970;2023-04-08T00:20:45;2.92;92.71
65207;SHT31;58477;48.072;11.970;2023-04-08T00:23:11;3.03;93.25
65207;SHT31;58477;48.072;11.970;2023-04-08T00:25:36;3.04;93.45
65207;SHT31;58477;48.072;11.970;2023-04-08T00:28:02;3.41;93.36
65207;SHT31;58477;48.072;11.970;2023-04-08T00:30:27;3.50;92.64
65207;SHT31;58477;48.072;11.970;2023-04-08T00:32:53;3.44;92.85
65207;SHT31;58477;48.072;11.970;2023-04-08T00:35:19;3.38;93.24
65207;SHT31;58477;48.072;11.970;2023-04-08T00:37:44;3.30;92.70
65207;SHT31;58477;48.072;11.970;2023-04-08T00:40:10;3.28;92.82
65207;SHT31;58477;48.072;11.970;2023-04-08T00:42:36;3.13;92.59
65207;SHT31;58477;48.072;11.970;2023-04-08T00:45:01;3.16;93.51
65207;SHT31;58477;48.072;11.970;2023-04-08T00:47:27;3.14;93.74
65207;SHT31;58477;48.072;11.970;2023-04-08T00:49:53;3.10;94.05
65207;SHT31;58477;48.072;11.970;2023-04-08T00:52:18;3.11;93.63
65207;SHT31;58477;48.072;11.970;2023-04-08T00:54:44;3.14;94.07
65207;SHT31;58477;48.072;11.970;2023-04-08T00:57:09;3.23;94.21
65207;SHT31;58477;48.072;11.970;2023-04-08T00:59:35;3.42;94.15
65207;SHT31;58477;48.072;11.970;2023-04-08T01:02:22;3.47;93.79
65207;SHT31;58477;48.072;11.970;2023-04-08T01:05:01;3.77;94.27
65207;SHT31;58477;48.072;11.970;2023-04-08T01:07:31;3.72;93.86
65207;SHT31;58477;48.072;11.970;2023-04-08T01:10:02;3.89;93.83
65207;SHT31;58477;48.072;11.970;2023-04-08T01:12:30;4.05;93.72
65207;SHT31;58477;48.072;11.970;2023-04-08T01:15:01;4.06;93.40
65207;SHT31;58477;48.072;11.970;2023-04-08T01:17:28;4.09;93.45
65207;SHT31;58477;48.072;11.970;2023-04-08T01:19:56;4.07;93.47
65207;SHT31;58477;48.072;11.970;2023-04-08T01:25:04;4.16;93.18
65207;SHT31;58477;48.072;11.970;2023-04-08T01:27:32;4.23;93.05
65207;SHT31;58477;48.072;11.970;2023-04-08T01:30:01;4.23;93.11
65207;SHT31;58477;48.072;11.970;2023-04-08T01:32:30;4.22;93.10
65207;SHT31;58477;48.072;11.970;2023-04-08T01:34:57;4.26;93.05
65207;SHT31;58477;48.072;11.970;2023-04-08T01:37:28;4.26;93.03
65207;SHT31;58477;48.072;11.970;2023-04-08T01:39:55;4.37;92.85
65207;SHT31;58477;48.072;11.970;2023-04-08T01:42:23;4.33;92.83
65207;SHT31;58477;48.072;11.970;2023-04-08T01:44:51;4.37;92.76
65207;SHT31;58477;48.072;11.970;2023-04-08T01:47:18;4.33;92.79
65207;SHT31;58477;48.072;11.970;2023-04-08T01:49:43;4.39;92.66
65207;SHT31;58477;48.072;11.970;2023-04-08T01:52:10;4.40;92.78
65207;SHT31;58477;48.072;11.970;2023-04-08T01:54:36;4.42;92.68
65207;SHT31;58477;48.072;11.970;2023-04-08T01:57:04;4.45;92.64
65207;SHT31;58477;48.072;11.970;2023-04-08T01:59:34;4.42;92.65
65207;SHT31;58477;48.072;11.970;2023-04-08T02:02:01;4.49;92.47
65207;SHT31;58477;48.072;11.970;2023-04-08T02:04:29;4.47;92.53
65207;SHT31;58477;48.072;11.970;2023-04-08T02:06:55;4.50;92.49
65207;SHT31;58477;48.072;11.970;2023-04-08T02:09:21;4.52;92.48
65207;SHT31;58477;48.072;11.970;2023-04-08T02:11:47;4.52;92.45
65207;SHT31;58477;48.072;11.970;2023-04-08T02:14:12;4.54;92.50
65207;SHT31;58477;48.072;11.970;2023-04-08T02:16:48;4.59;92.42
65207;SHT31;58477;48.072;11.970;2023-04-08T02:19:23;4.53;92.61
65207;SHT31;58477;48.072;11.970;2023-04-08T02:21:54;4.53;92.57
65207;SHT31;58477;48.072;11.970;2023-04-08T02:24:21;4.59;92.47
65207;SHT31;58477;48.072;11.970;2023-04-08T02:26:49;4.57;92.51
65207;SHT31;58477;48.072;11.970;2023-04-08T02:29:16;4.59;92.32
65207;SHT31;58477;48.072;11.970;2023-04-08T02:31:43;4.57;92.39
65207;SHT31;58477;48.072;11.970;2023-04-08T02:34:09;4.56;92.42
65207;SHT31;58477;48.072;11.970;2023-04-08T02:36:35;4.56;92.52
65207;SHT31;58477;48.072;11.970;2023-04-08T02:39:02;4.56;92.50
65207;SHT31;58477;48.072;11.970;2023-04-08T02:41:28;4.59;92.42
65207;SHT31;58477;48.072;11.970;2023-04-08T02:43:54;4.54;92.54
65207;SHT31;58477;48.072;11.970;2023-04-08T02:46:20;4.60;92.49
65207;SHT31;58477;48.072;11.970;2023-04-08T02:48:45;4.59;92.39
65207;SHT31;58477;48.072;11.970;2023-04-08T02:51:11;4.63;92.37
65207;SHT31;58477;48.072;11.970;2023-04-08T02:53:36;4.63;92.34
65207;SHT31;58477;48.072;11.970;2023-04-08T02:56:02;4.61;92.32
65207;SHT31;58477;48.072;11.970;2023-04-08T02:58:27;4.63;92.33
65207;SHT31;58477;48.072;11.970;2023-04-08T03:00:53;4.63;92.33
65207;SHT31;58477;48.072;11.970;2023-04-08T03:03:18;4.60;92.46
65207;SHT31;58477;48.072;11.970;2023-04-08T03:05:44;4.59;92.55
65207;SHT31;58477;48.072;11.970;2023-04-08T03:08:09;4.59;92.50
65207;SHT31;58477;48.072;11.970;2023-04-08T03:10:34;4.54;92.56
65207;SHT31;58477;48.072;11.970;2023-04-08T03:13:00;4.56;92.47
65207;SHT31;58477;48.072;11.970;2023-04-08T03:15:25;4.53;92.56
65207;SHT31;58477;48.072;11.970;2023-04-08T03:17:51;4.49;92.60
65207;SHT31;58477;48.072;11.970;2023-04-08T03:20:17;4.47;92.69
65207;SHT31;58477;48.072;11.970;2023-04-08T03:22:42;4.45;92.74
65207;SHT31;58477;48.072;11.970;2023-04-08T03:25:08;4.40;92.82
65207;SHT31;58477;48.072;11.970;2023-04-08T03:27:33;4.39;92.85
65207;SHT31;58477;48.072;11.970;2023-04-08T03:29:59;4.33;92.98
65207;SHT31;58477;48.072;11.970;2023-04-08T03:32:24;4.29;93.12
65207;SHT31;58477;48.072;11.970;2023-04-08T03:34:50;4.32;93.21
65207;SHT31;58477;48.072;11.970;2023-04-08T03:37:18;4.28;93.20
65207;SHT31;58477;48.072;11.970;2023-04-08T03:39:43;4.23;93.37
65207;SHT31;58477;48.072;11.970;2023-04-08T03:42:09;4.20;93.45
65207;SHT31;58477;48.072;11.970;2023-04-08T03:44:34;4.16;93.61
65207;SHT31;58477;48.072;11.970;2023-04-08T03:47:00;4.17;93.63
65207;SHT31;58477;48.072;11.970;2023-04-08T03:49:25;4.16;93.67
65207;SHT31;58477;48.072;11.970;2023-04-08T03:51:50;4.13;93.62
65207;SHT31;58477;48.072;11.970;2023-04-08T03:54:16;4.17;93.69
65207;SHT31;58477;48.072;11.970;2023-04-08T03:56:41;4.17;93.72
65207;SHT31;58477;48.072;11.970;2023-04-08T03:59:07;4.15;93.81
65207;SHT31;58477;48.072;11.970;2023-04-08T04:01:32;4.16;93.83
65207;SHT31;58477;48.072;11.970;2023-04-08T04:03:57;4.16;93.90
65207;SHT31;58477;48.072;11.970;2023-04-08T04:06:23;4.12;93.78
65207;SHT31;58477;48.072;11.970;2023-04-08T04:08:49;4.15;93.90
65207;SHT31;58477;48.072;11.970;2023-04-08T04:11:15;4.13;93.88
65207;SHT31;58477;48.072;11.970;2023-04-08T04:13:40;4.16;93.91
65207;SHT31;58477;48.072;11.970;2023-04-08T04:16:06;4.17;93.86
65207;SHT31;58477;48.072;11.970;2023-04-08T04:18:31;4.19;93.71
65207;SHT31;58477;48.072;11.970;2023-04-08T04:20:56;4.23;93.71
65207;SHT31;58477;48.072;11.970;2023-04-08T04:23:22;4.22;93.73
65207;SHT31;58477;48.072;11.970;2023-04-08T04:25:50;4.22;93.61
65207;SHT31;58477;48.072;11.970;2023-04-08T04:28:15;4.25;93.61
65207;SHT31;58477;48.072;11.970;2023-04-08T04:30:41;4.23;93.64
65207;SHT31;58477;48.072;11.970;2023-04-08T04:33:06;4.26;93.52
65207;SHT31;58477;48.072;11.970;2023-04-08T04:35:32;4.30;93.35
65207;SHT31;58477;48.072;11.970;2023-04-08T04:37:58;4.35;93.29
65207;SHT31;58477;48.072;11.970;2023-04-08T04:40:23;4.36;93.37
65207;SHT31;58477;48.072;11.970;2023-04-08T04:42:49;4.39;93.34
65207;SHT31;58477;48.072;11.970;2023-04-08T04:45:14;4.43;93.25
65207;SHT31;58477;48.072;11.970;2023-04-08T04:47:40;4.45;93.24
65207;SHT31;58477;48.072;11.970;2023-04-08T04:50:05;4.47;93.28
65207;SHT31;58477;48.072;11.970;2023-04-08T04:52:31;4.52;93.14
65207;SHT31;58477;48.072;11.970;2023-04-08T04:54:57;4.53;93.13
65207;SHT31;58477;48.072;11.970;2023-04-08T04:57:23;4.52;93.07
65207;SHT31;58477;48.072;11.970;2023-04-08T04:59:48;4.56;93.08
65207;SHT31;58477;48.072;11.970;2023-04-08T05:02:14;4.60;92.94
65207;SHT31;58477;48.072;11.970;2023-04-08T05:04:39;4.64;92.97
65207;SHT31;58477;48.072;11.970;2023-04-08T05:07:05;4.67;92.85
65207;SHT31;58477;48.072;11.970;2023-04-08T05:09:30;4.71;92.61
65207;SHT31;58477;48.072;11.970;2023-04-08T05:11:56;4.73;92.53
65207;SHT31;58477;48.072;11.970;2023-04-08T05:14:22;4.79;92.49
65207;SHT31;58477;48.072;11.970;2023-04-08T05:16:47;4.77;92.51
65207;SHT31;58477;48.072;11.970;2023-04-08T05:19:13;4.76;92.65
65207;SHT31;58477;48.072;11.970;2023-04-08T05:21:38;4.74;92.64
65207;SHT31;58477;48.072;11.970;2023-04-08T05:24:04;4.74;92.68
65207;SHT31;58477;48.072;11.970;2023-04-08T05:26:29;4.79;92.48
65207;SHT31;58477;48.072;11.970;2023-04-08T05:28:55;4.85;92.52
65207;SHT31;58477;48.072;11.970;2023-04-08T05:31:20;4.85;92.34
65207;SHT31;58477;48.072;11.970;2023-04-08T05:33:46;4.88;92.43
65207;SHT31;58477;48.072;11.970;2023-04-08T05:36:12;4.85;92.58
65207;SHT31;58477;48.072;11.970;2023-04-08T05:38:38;4.88;92.39
65207;SHT31;58477;48.072;11.970;2023-04-08T05:41:03;4.94;92.34
65207;SHT31;58477;48.072;11.970;2023-04-08T05:43:29;4.88;92.41
65207;SHT31;58477;48.072;11.970;2023-04-08T05:45:54;4.95;92.23
65207;SHT31;58477;48.072;11.970;2023-04-08T05:48:20;4.92;92.23
65207;SHT31;58477;48.072;11.970;2023-04-08T05:50:45;4.94;92.26
65207;SHT31;58477;48.072;11.970;2023-04-08T05:53:13;5.00;92.30
65207;SHT31;58477;48.072;11.970;2023-04-08T05:55:39;5.07;91.92
65207;SHT31;58477;48.072;11.970;2023-04-08T05:58:04;5.18;91.67
65207;SHT31;58477;48.072;11.970;2023-04-08T06:00:30;5.20;91.54
65207;SHT31;58477;48.072;11.970;2023-04-08T06:02:55;5.25;91.47
65207;SHT31;58477;48.072;11.970;2023-04-08T06:05:21;5.24;91.32
65207;SHT31;58477;48.072;11.970;2023-04-08T06:07:46;5.22;91.41
65207;SHT31;58477;48.072;11.970;2023-04-08T06:10:11;5.32;91.27
65207;SHT31;58477;48.072;11.970;2023-04-08T06:12:37;5.31;91.40
65207;SHT31;58477;48.072;11.970;2023-04-08T06:15:05;5.28;91.14
65207;SHT31;58477;48.072;11.970;2023-04-08T06:17:31;5.38;91.01
65207;SHT31;58477;48.072;11.970;2023-04-08T06:19:56;5.42;90.81
65207;SHT31;58477;48.072;11.970;2023-04-08T06:22:22;5.45;90.94
65207;SHT31;58477;48.072;11.970;2023-04-08T06:24:47;5.46;90.76
65207;SHT31;58477;48.072;11.970;2023-04-08T06:27:13;5.41;90.74
65207;SHT31;58477;48.072;11.970;2023-04-08T06:29:39;5.48;90.93
65207;SHT31;58477;48.072;11.970;2023-04-08T06:32:05;5.49;90.74
65207;SHT31;58477;48.072;11.970;2023-04-08T06:34:30;5.62;90.59
65207;SHT31;58477;48.072;11.970;2023-04-08T06:36:56;5.62;90.38
65207;SHT31;58477;48.072;11.970;2023-04-08T06:39:22;5.69;90.25
65207;SHT31;58477;48.072;11.970;2023-04-08T06:41:47;5.75;90.15
65207;SHT31;58477;48.072;11.970;2023-04-08T06:44:32;5.85;89.78
65207;SHT31;58477;48.072;11.970;2023-04-08T06:46:57;6.00;89.28
65207;SHT31;58477;48.072;11.970;2023-04-08T06:49:23;6.09;89.21
65207;SHT31;58477;48.072;11.970;2023-04-08T06:51:48;6.09;89.27
65207;SHT31;58477;48.072;11.970;2023-04-08T06:54:14;6.02;89.34
65207;SHT31;58477;48.072;11.970;2023-04-08T06:56:39;5.85;89.51
65207;SHT31;58477;48.072;11.970;2023-04-08T06:59:05;6.11;89.43
65207;SHT31;58477;48.072;11.970;2023-04-08T07:01:30;6.24;89.12
65207;SHT31;58477;48.072;11.970;2023-04-08T07:03:56;6.29;88.95
65207;SHT31;58477;48.072;11.970;2023-04-08T07:06:22;6.34;89.12
65207;SHT31;58477;48.072;11.970;2023-04-08T07:08:47;6.21;89.38
65207;SHT31;58477;48.072;11.970;2023-04-08T07:11:13;6.44;88.90
65207;SHT31;58477;48.072;11.970;2023-04-08T07:13:38;6.51;88.92
65207;SHT31;58477;48.072;11.970;2023-04-08T07:16:04;6.47;87.73
65207;SHT31;58477;48.072;11.970;2023-04-08T07:18:31;6.31;87.51
65207;SHT31;58477;48.072;11.970;2023-04-08T07:20:57;6.23;87.05
65207;SHT31;58477;48.072;11.970;2023-04-08T07:27:10;6.19;86.53
65207;SHT31;58477;48.072;11.970;2023-04-08T07:29:35;6.31;85.73
65207;SHT31;58477;48.072;11.970;2023-04-08T07:32:01;6.43;85.45
65207;SHT31;58477;48.072;11.970;2023-04-08T07:34:26;6.43;85.11
65207;SHT31;58477;48.072;11.970;2023-04-08T07:36:51;6.37;83.24
65207;SHT31;58477;48.072;11.970;2023-04-08T07:39:17;6.40;80.16
65207;SHT31;58477;48.072;11.970;2023-04-08T07:41:42;6.55;80.69
65207;SHT31;58477;48.072;11.970;2023-04-08T07:44:08;6.57;78.05
65207;SHT31;58477;48.072;11.970;2023-04-08T07:46:37;6.38;78.68
65207;SHT31;58477;48.072;11.970;2023-04-08T07:49:03;6.26;81.26
65207;SHT31;58477;48.072;11.970;2023-04-08T07:51:28;5.99;83.51
65207;SHT31;58477;48.072;11.970;2023-04-08T07:53:54;5.72;83.75
65207;SHT31;58477;48.072;11.970;2023-04-08T07:56:19;5.46;85.25
65207;SHT31;58477;48.072;11.970;2023-04-08T07:58:46;5.31;85.18
65207;SHT31;58477;48.072;11.970;2023-04-08T08:03:40;5.07;85.54
65207;SHT31;58477;48.072;11.970;2023-04-08T08:06:06;5.11;86.35
65207;SHT31;58477;48.072;11.970;2023-04-08T08:08:31;5.02;85.61
65207;SHT31;58477;48.072;11.970;2023-04-08T08:10:57;5.04;86.51
65207;SHT31;58477;48.072;11.970;2023-04-08T08:13:23;4.94;86.84
65207;SHT31;58477;48.072;11.970;2023-04-08T08:15:51;4.92;88.25
65207;SHT31;58477;48.072;11.970;2023-04-08T08:18:18;4.77;86.13
65207;SHT31;58477;48.072;11.970;2023-04-08T08:20:43;4.80;86.87
65207;SHT31;58477;48.072;11.970;2023-04-08T08:23:08;4.79;87.31
65207;SHT31;58477;48.072;11.970;2023-04-08T08:25:34;4.79;86.96
65207;SHT31;58477;48.072;11.970;2023-04-08T08:27:59;4.79;87.35
65207;SHT31;58477;48.072;11.970;2023-04-08T08:30:25;4.87;87.55
65207;SHT31;58477;48.072;11.970;2023-04-08T08:32:51;4.85;87.54
65207;SHT31;58477;48.072;11.970;2023-04-08T08:35:16;4.79;87.97
65207;SHT31;58477;48.072;11.970;2023-04-08T08:37:42;4.79;88.03
65207;SHT31;58477;48.072;11.970;2023-04-08T08:40:08;4.76;88.08
65207;SHT31;58477;48.072;11.970;2023-04-08T08:42:34;4.73;88.18
65207;SHT31;58477;48.072;11.970;2023-04-08T08:45:02;4.70;88.53
65207;SHT31;58477;48.072;11.970;2023-04-08T08:47:29;4.76;88.46
65207;SHT31;58477;48.072;11.970;2023-04-08T08:49:55;4.69;88.28
65207;SHT31;58477;48.072;11.970;2023-04-08T08:52:20;4.61;88.66
65207;SHT31;58477;48.072;11.970;2023-04-08T08:54:46;4.54;88.25
65207;SHT31;58477;48.072;11.970;2023-04-08T08:57:18;4.71;89.47
65207;SHT31;58477;48.072;11.970;2023-04-08T08:59:47;4.42;89.48
65207;SHT31;58477;48.072;11.970;2023-04-08T09:02:26;4.66;89.08
65207;SHT31;58477;48.072;11.970;2023-04-08T09:04:57;4.59;88.51
65207;SHT31;58477;48.072;11.970;2023-04-08T09:07:23;4.49;89.06
65207;SHT31;58477;48.072;11.970;2023-04-08T09:09:52;4.60;88.25
65207;SHT31;58477;48.072;11.970;2023-04-08T09:12:17;4.53;88.63
65207;SHT31;58477;48.072;11.970;2023-04-08T09:14:43;4.76;89.27
65207;SHT31;58477;48.072;11.970;2023-04-08T09:17:09;4.83;89.22
65207;SHT31;58477;48.072;11.970;2023-04-08T09:19:35;5.01;88.67
65207;SHT31;58477;48.072;11.970;2023-04-08T09:22:10;5.17;88.52
65207;SHT31;58477;48.072;11.970;2023-04-08T09:24:36;5.30;88.44
65207;SHT31;58477;48.072;11.970;2023-04-08T09:27:08;5.48;88.25
65207;SHT31;58477;48.072;11.970;2023-04-08T09:29:33;5.31;88.07
65207;SHT31;58477;48.072;11.970;2023-04-08T09:32:00;5.38;88.44
65207;SHT31;58477;48.072;11.970;2023-04-08T09:34:27;5.42;87.83
65207;SHT31;58477;48.072;11.970;2023-04-08T09:36:53;5.15;88.14
65207;SHT31;58477;48.072;11.970;2023-04-08T09:39:20;5.21;89.10
65207;SHT31;58477;48.072;11.970;2023-04-08T09:41:49;4.91;89.62
65207;SHT31;58477;48.072;11.970;2023-04-08T09:44:16;5.14;90.26
65207;SHT31;58477;48.072;11.970;2023-04-08T09:49:33;5.04;89.51
65207;SHT31;58477;48.072;11.970;2023-04-08T09:52:06;5.01;88.92
65207;SHT31;58477;48.072;11.970;2023-04-08T09:57:21;4.81;88.36
65207;SHT31;58477;48.072;11.970;2023-04-08T10:00:00;4.81;87.53
65207;SHT31;58477;48.072;11.970;2023-04-08T10:05:12;5.00;87.38
65207;SHT31;58477;48.072;11.970;2023-04-08T10:07:38;5.21;87.34
65207;SHT31;58477;48.072;11.970;2023-04-08T10:10:05;5.46;86.54
65207;SHT31;58477;48.072;11.970;2023-04-08T10:12:32;5.62;86.46
65207;SHT31;58477;48.072;11.970;2023-04-08T10:15:32;5.62;86.44
65207;SHT31;58477;48.072;11.970;2023-04-08T10:23:07;5.89;84.73
65207;SHT31;58477;48.072;11.970;2023-04-08T10:25:34;6.19;85.10
65207;SHT31;58477;48.072;11.970;2023-04-08T10:33:18;6.05;84.56
65207;SHT31;58477;48.072;11.970;2023-04-08T10:38:24;5.83;84.47
65207;SHT31;58477;48.072;11.970;2023-04-08T10:40:49;5.85;84.66
65207;SHT31;58477;48.072;11.970;2023-04-08T10:43:15;5.70;84.47
65207;SHT31;58477;48.072;11.970;2023-04-08T10:45:42;5.80;84.94
65207;SHT31;58477;48.072;11.970;2023-04-08T10:48:21;6.14;84.35
65207;SHT31;58477;48.072;11.970;2023-04-08T10:51:14;6.00;82.85
65207;SHT31;58477;48.072;11.970;2023-04-08T10:53:41;6.02;84.18
65207;SHT31;58477;48.072;11.970;2023-04-08T10:58:33;6.00;84.15
65207;SHT31;58477;48.072;11.970;2023-04-08T11:01:05;5.83;84.08
65207;SHT31;58477;48.072;11.970;2023-04-08T11:03:32;5.79;84.45
65207;SHT31;58477;48.072;11.970;2023-04-08T11:05:59;5.89;85.23
65207;SHT31;58477;48.072;11.970;2023-04-08T11:08:31;5.79;84.86
65207;SHT31;58477;48.072;11.970;2023-04-08T11:10:58;5.58;84.95
65207;SHT31;58477;48.072;11.970;2023-04-08T11:13:26;5.51;85.71
65207;SHT31;58477;48.072;11.970;2023-04-08T11:15:52;5.31;85.41
65207;SHT31;58477;48.072;11.970;2023-04-08T11:18:18;5.44;85.94
65207;SHT31;58477;48.072;11.970;2023-04-08T11:20:43;5.46;86.57
65207;SHT31;58477;48.072;11.970;2023-04-08T11:23:15;5.70;86.49
65207;SHT31;58477;48.072;11.970;2023-04-08T11:25:42;5.51;86.21
65207;SHT31;58477;48.072;11.970;2023-04-08T11:28:08;5.75;86.89
65207;SHT31;58477;48.072;11.970;2023-04-08T11:30:33;5.85;86.98
65207;SHT31;58477;48.072;11.970;2023-04-08T11:32:59;5.87;86.72
65207;SHT31;58477;48.072;11.970;2023-04-08T11:35:29;5.99;86.60
65207;SHT31;58477;48.072;11.970;2023-04-08T11:37:55;6.06;87.19
65207;SHT31;58477;48.072;11.970;2023-04-08T11:40:21;5.55;86.66
65207;SHT31;58477;48.072;11.970;2023-04-08T11:42:48;5.62;86.83
65207;SHT31;58477;48.072;11.970;2023-04-08T11:45:15;5.59;87.07
65207;SHT31;58477;48.072;11.970;2023-04-08T11:47:42;5.52;87.73
65207;SHT31;58477;48.072;11.970;2023-04-08T11:50:08;5.55;87.87
65207;SHT31;58477;48.072;11.970;2023-04-08T11:52:47;5.27;88.30
65207;SHT31;58477;48.072;11.970;2023-04-08T11:55:27;5.48;88.10
65207;SHT31;58477;48.072;11.970;2023-04-08T11:57:54;5.34;88.22
65207;SHT31;58477;48.072;11.970;2023-04-08T12:00:20;5.24;88.23
65207;SHT31;58477;48.072;11.970;2023-04-08T12:02:46;5.31;88.12
65207;SHT31;58477;48.072;11.970;2023-04-08T12:05:15;5.36;88.53
65207;SHT31;58477;48.072;11.970;2023-04-08T12:07:41;5.15;87.88
65207;SHT31;58477;48.072;11.970;2023-04-08T12:10:08;5.20;88.04
65207;SHT31;58477;48.072;11.970;2023-04-08T12:12:34;5.21;87.79
65207;SHT31;58477;48.072;11.970;2023-04-08T12:14:59;5.17;87.87
65207;SHT31;58477;48.072;11.970;2023-04-08T12:17:25;5.30;87.70
65207;SHT31;58477;48.072;11.970;2023-04-08T12:19:50;5.32;87.58
65207;SHT31;58477;48.072;11.970;2023-04-08T12:22:16;5.30;86.96
65207;SHT31;58477;48.072;11.970;2023-04-08T12:24:41;5.38;87.02
65207;SHT31;58477;48.072;11.970;2023-04-08T12:27:07;5.54;86.41
65207;SHT31;58477;48.072;11.970;2023-04-08T12:29:32;5.49;86.55
65207;SHT31;58477;48.072;11.970;2023-04-08T12:31:58;5.36;86.62
65207;SHT31;58477;48.072;11.970;2023-04-08T12:34:24;5.45;86.65
65207;SHT31;58477;48.072;11.970;2023-04-08T12:36:49;5.46;86.04
65207;SHT31;58477;48.072;11.970;2023-04-08T12:39:15;5.36;86.20
65207;SHT31;58477;48.072;11.970;2023-04-08T12:41:41;5.18;86.63
65207;SHT31;58477;48.072;11.970;2023-04-08T12:44:06;5.28;87.28
65207;SHT31;58477;48.072;11.970;2023-04-08T12:46:32;5.14;87.52
65207;SHT31;58477;48.072;11.970;2023-04-08T12:48:57;5.18;88.02
65207;SHT31;58477;48.072;11.970;2023-04-08T12:51:23;5.25;87.45
65207;SHT31;58477;48.072;11.970;2023-04-08T12:53:50;5.24;87.32
65207;SHT31;58477;48.072;11.970;2023-04-08T12:56:16;5.12;87.41
65207;SHT31;58477;48.072;11.970;2023-04-08T12:58:41;4.92;88.37
65207;SHT31;58477;48.072;11.970;2023-04-08T13:01:06;4.87;89.40
65207;SHT31;58477;48.072;11.970;2023-04-08T13:03:32;4.90;89.94
65207;SHT31;58477;48.072;11.970;2023-04-08T13:05:59;4.73;88.82
65207;SHT31;58477;48.072;11.970;2023-04-08T13:08:25;4.71;89.12
65207;SHT31;58477;48.072;11.970;2023-04-08T13:10:50;4.76;89.29
65207;SHT31;58477;48.072;11.970;2023-04-08T13:13:15;4.81;89.71
65207;SHT31;58477;48.072;11.970;2023-04-08T13:15:41;4.77;89.35
65207;SHT31;58477;48.072;11.970;2023-04-08T13:18:08;4.64;89.75
65207;SHT31;58477;48.072;11.970;2023-04-08T13:20:33;4.64;90.31
65207;SHT31;58477;48.072;11.970;2023-04-08T13:22:59;4.56;90.46
65207;SHT31;58477;48.072;11.970;2023-04-08T13:25:25;4.67;90.09
65207;SHT31;58477;48.072;11.970;2023-04-08T13:27:51;4.63;90.57
65207;SHT31;58477;48.072;11.970;2023-04-08T13:30:16;4.70;90.75
65207;SHT31;58477;48.072;11.970;2023-04-08T13:32:41;4.67;90.57
65207;SHT31;58477;48.072;11.970;2023-04-08T13:35:07;4.56;90.37
65207;SHT31;58477;48.072;11.970;2023-04-08T13:37:33;4.56;91.37
65207;SHT31;58477;48.072;11.970;2023-04-08T13:39:58;4.35;91.37
65207;SHT31;58477;48.072;11.970;2023-04-08T13:42:23;4.40;91.76
65207;SHT31;58477;48.072;11.970;2023-04-08T13:44:49;4.49;91.76
65207;SHT31;58477;48.072;11.970;2023-04-08T13:47:15;4.47;91.81
65207;SHT31;58477;48.072;11.970;2023-04-08T13:49:41;4.50;91.43
65207;SHT31;58477;48.072;11.970;2023-04-08T13:52:06;4.40;90.94
65207;SHT31;58477;48.072;11.970;2023-04-08T13:54:32;4.39;91.15
65207;SHT31;58477;48.072;11.970;2023-04-08T13:56:57;4.37;91.72
65207;SHT31;58477;48.072;11.970;2023-04-08T13:59:23;4.46;91.84
65207;SHT31;58477;48.072;11.970;2023-04-08T14:01:48;4.47;91.08
65207;SHT31;58477;48.072;11.970;2023-04-08T14:04:18;4.45;91.37
65207;SHT31;58477;48.072;11.970;2023-04-08T14:06:45;4.49;91.60
65207;SHT31;58477;48.072;11.970;2023-04-08T14:09:10;4.46;91.94
65207;SHT31;58477;48.072;11.970;2023-04-08T14:11:36;4.53;91.84
65207;SHT31;58477;48.072;11.970;2023-04-08T14:14:02;4.66;91.57
65207;SHT31;58477;48.072;11.970;2023-04-08T14:16:27;4.64;91.84
65207;SHT31;58477;48.072;11.970;2023-04-08T14:18:55;4.54;91.99
65207;SHT31;58477;48.072;11.970;2023-04-08T14:21:21;4.42;92.18
65207;SHT31;58477;48.072;11.970;2023-04-08T14:23:47;4.56;91.87
65207;SHT31;58477;48.072;11.970;2023-04-08T14:26:12;4.53;92.31
65207;SHT31;58477;48.072;11.970;2023-04-08T14:28:38;4.57;91.20
65207;SHT31;58477;48.072;11.970;2023-04-08T14:31:03;4.71;91.64
65207;SHT31;58477;48.072;11.970;2023-04-08T14:33:29;4.70;91.45
65207;SHT31;58477;48.072;11.970;2023-04-08T14:35:55;4.79;91.19
65207;SHT31;58477;48.072;11.970;2023-04-08T14:38:21;4.61;90.54
65207;SHT31;58477;48.072;11.970;2023-04-08T14:40:47;4.59;90.55
65207;SHT31;58477;48.072;11.970;2023-04-08T14:43:12;4.60;91.69
65207;SHT31;58477;48.072;11.970;2023-04-08T14:45:38;4.50;91.00
65207;SHT31;58477;48.072;11.970;2023-04-08T14:48:03;4.71;91.02
65207;SHT31;58477;48.072;11.970;2023-04-08T14:50:29;4.59;90.98
65207;SHT31;58477;48.072;11.970;2023-04-08T14:52:55;4.74;91.13
65207;SHT31;58477;48.072;11.970;2023-04-08T14:55:21;4.74;91.19
65207;SHT31;58477;48.072;11.970;2023-04-08T14:57:46;4.66;90.61
65207;SHT31;58477;48.072;11.970;2023-04-08T15:00:12;4.69;91.02
65207;SHT31;58477;48.072;11.970;2023-04-08T15:02:38;4.61;91.75
65207;SHT31;58477;48.072;11.970;2023-04-08T15:05:03;4.77;91.33
65207;SHT31;58477;48.072;11.970;2023-04-08T15:07:29;4.94;91.23
65207;SHT31;58477;48.072;11.970;2023-04-08T15:09:54;5.04;91.10
65207;SHT31;58477;48.072;11.970;2023-04-08T15:12:20;5.07;90.79
65207;SHT31;58477;48.072;11.970;2023-04-08T15:14:46;5.04;90.45
65207;SHT31;58477;48.072;11.970;2023-04-08T15:17:11;4.91;90.49
65207;SHT31;58477;48.072;11.970;2023-04-08T15:19:37;4.92;91.38
65207;SHT31;58477;48.072;11.970;2023-04-08T15:22:02;4.87;90.92
65207;SHT31;58477;48.072;11.970;2023-04-08T15:24:28;4.70;91.11
65207;SHT31;58477;48.072;11.970;2023-04-08T15:26:53;4.74;91.81
65207;SHT31;58477;48.072;11.970;2023-04-08T15:29:21;4.71;91.34
65207;SHT31;58477;48.072;11.970;2023-04-08T15:31:47;4.73;91.14
65207;SHT31;58477;48.072;11.970;2023-04-08T15:34:12;4.70;91.34
65207;SHT31;58477;48.072;11.970;2023-04-08T15:36:38;4.84;91.17
65207;SHT31;58477;48.072;11.970;2023-04-08T15:39:04;4.64;91.37
65207;SHT31;58477;48.072;11.970;2023-04-08T15:41:30;4.64;92.05
65207;SHT31;58477;48.072;11.970;2023-04-08T15:43:56;4.59;92.04
65207;SHT31;58477;48.072;11.970;2023-04-08T15:46:22;4.63;91.75
65207;SHT31;58477;48.072;11.970;2023-04-08T15:48:48;4.28;92.93
65207;SHT31;58477;48.072;11.970;2023-04-08T15:51:14;4.33;92.89
65207;SHT31;58477;48.072;11.970;2023-04-08T15:53:41;4.36;93.14
65207;SHT31;58477;48.072;11.970;2023-04-08T15:56:16;4.45;92.73
65207;SHT31;58477;48.072;11.970;2023-04-08T15:58:43;4.42;92.78